createdAt,value
2023-03-10T00:02:20.185Z,28.97
2023-03-10T00:04:51.175Z,35.60
2023-03-10T00:07:19.430Z,27.13
2023-03-10T00:09:47.887Z,27.90
2023-03-10T00:12:16.038Z,33.47
2023-03-10T00:14:45.648Z,34.63
2023-03-10T00:17:13.782Z,27.00
2023-03-10T00:19:41.986Z,29.87
2023-03-10T00:22:10.124Z,28.93
2023-03-10T00:24:38.320Z,24.53
2023-03-10T00:27:06.568Z,26.63
2023-03-10T00:29:34.716Z,24.33
2023-03-10T00:32:04.269Z,23.23
2023-03-10T00:34:32.445Z,25.27
2023-03-10T00:37:00.589Z,24.53
2023-03-10T00:39:28.790Z,24.83
2023-03-10T00:41:56.961Z,22.40
2023-03-10T00:44:25.161Z,24.40
2023-03-10T00:46:53.703Z,27.27
2023-03-10T00:49:23.216Z,26.20
2023-03-10T00:51:51.417Z,29.03
2023-03-10T00:54:19.609Z,27.97
2023-03-10T00:56:47.790Z,28.90
2023-03-10T00:59:15.908Z,28.73
2023-03-10T01:01:44.379Z,34.87
2023-03-10T01:04:13.722Z,34.50
2023-03-10T01:06:44.537Z,28.03
2023-03-10T01:09:12.763Z,30.60
2023-03-10T01:11:41.011Z,33.00
2023-03-10T01:14:10.678Z,35.03
2023-03-10T01:16:38.885Z,28.13
2023-03-10T01:19:07.501Z,30.10
2023-03-10T01:21:36.844Z,33.60
2023-03-10T01:24:07.458Z,31.13
2023-03-10T01:26:35.600Z,30.53
2023-03-10T01:29:03.835Z,28.40
2023-03-10T01:31:32.067Z,25.77
2023-03-10T01:34:00.272Z,26.57
2023-03-10T01:36:28.729Z,24.47
2023-03-10T01:38:57.466Z,20.83
2023-03-10T01:41:27.020Z,19.23
2023-03-10T01:43:55.939Z,19.20
2023-03-10T01:46:43.086Z,19.73
2023-03-10T01:49:16.974Z,19.80
2023-03-10T01:51:47.545Z,22.23
2023-03-10T01:54:17.750Z,20.83
2023-03-10T01:56:47.692Z,19.77
2023-03-10T01:59:16.214Z,21.37
2023-03-10T02:01:44.528Z,21.13
2023-03-10T02:04:15.813Z,24.20
2023-03-10T02:06:44.408Z,28.40
2023-03-10T02:09:12.788Z,28.13
2023-03-10T02:11:40.994Z,26.57
2023-03-10T02:14:10.550Z,26.57
2023-03-10T02:16:38.824Z,25.90
2023-03-10T02:19:10.760Z,19.60
2023-03-10T02:21:42.906Z,19.77
2023-03-10T02:24:14.779Z,22.60
2023-03-10T02:26:47.437Z,19.93
2023-03-10T02:29:19.494Z,27.27
2023-03-10T02:31:48.723Z,34.33
2023-03-10T02:34:16.956Z,28.80
2023-03-10T02:36:45.117Z,26.27
2023-03-10T02:39:13.318Z,31.77
2023-03-10T02:41:44.263Z,36.23
2023-03-10T02:44:14.916Z,36.07
2023-03-10T02:46:44.816Z,34.60
2023-03-10T02:49:13.025Z,28.60
2023-03-10T02:51:42.703Z,25.43
2023-03-10T02:54:11.371Z,22.17
2023-03-10T02:56:39.686Z,26.00
2023-03-10T02:59:08.969Z,26.80
2023-03-10T03:01:37.188Z,24.33
2023-03-10T03:04:06.907Z,26.97
2023-03-10T03:06:35.799Z,29.10
2023-03-10T03:09:04.377Z,35.63
2023-03-10T03:11:32.553Z,29.53
2023-03-10T03:14:00.761Z,25.77
2023-03-10T03:16:28.934Z,25.83
2023-03-10T03:18:57.152Z,24.70
2023-03-10T03:21:27.417Z,23.27
2023-03-10T03:23:55.663Z,21.10
2023-03-10T03:26:25.199Z,20.63
2023-03-10T03:28:53.349Z,22.10
2023-03-10T03:31:22.462Z,21.80
2023-03-10T03:33:50.973Z,25.13
2023-03-10T03:36:19.481Z,28.63
2023-03-10T03:38:49.048Z,29.13
2023-03-10T03:41:17.343Z,27.03
2023-03-10T03:43:45.504Z,29.73
2023-03-10T03:46:13.743Z,27.17
2023-03-10T03:48:42.048Z,22.80
2023-03-10T03:51:10.249Z,23.10
2023-03-10T03:53:38.486Z,18.37
2023-03-10T03:56:08.569Z,23.23
2023-03-10T03:58:36.795Z,19.47
2023-03-10T04:01:05.119Z,19.07
2023-03-10T04:03:33.413Z,17.47
2023-03-10T04:06:01.562Z,16.77
2023-03-10T04:08:29.772Z,21.67
2023-03-10T04:10:58.052Z,23.17
2023-03-10T04:13:27.549Z,23.53
2023-03-10T04:15:58.900Z,26.83
2023-03-10T04:18:27.425Z,23.93
2023-03-10T04:20:55.622Z,20.30
2023-03-10T04:23:23.882Z,19.57
2023-03-10T04:25:52.021Z,21.73
2023-03-10T04:28:20.252Z,22.77
2023-03-10T04:30:49.779Z,20.90
2023-03-10T04:33:17.921Z,31.70
2023-03-10T04:35:48.837Z,30.23
2023-03-10T04:38:17.094Z,27.87
2023-03-10T04:40:45.266Z,21.83
2023-03-10T04:43:13.485Z,25.70
2023-03-10T04:45:41.656Z,27.60
2023-03-10T04:48:11.133Z,25.63
2023-03-10T04:50:39.263Z,27.60
2023-03-10T04:53:07.443Z,28.90
2023-03-10T04:55:35.677Z,26.00
2023-03-10T04:58:03.813Z,27.93
2023-03-10T05:00:32.230Z,25.40
2023-03-10T05:03:00.513Z,24.70
2023-03-10T05:05:30.081Z,22.80
2023-03-10T05:07:58.228Z,22.00
2023-03-10T05:10:26.380Z,27.20
2023-03-10T05:12:54.515Z,25.93
2023-03-10T05:15:22.792Z,23.70
2023-03-10T05:17:50.987Z,20.37
2023-03-10T05:20:19.426Z,21.30
2023-03-10T05:22:48.994Z,23.87
2023-03-10T05:25:17.155Z,27.37
2023-03-10T05:27:45.344Z,28.57
2023-03-10T05:30:15.887Z,36.87
2023-03-10T05:32:44.251Z,29.37
2023-03-10T05:35:12.811Z,25.47
2023-03-10T05:37:41.895Z,27.00
2023-03-10T05:40:14.145Z,25.30
2023-03-10T05:42:42.412Z,25.20
2023-03-10T05:45:12.243Z,29.17
2023-03-10T05:47:40.448Z,30.97
2023-03-10T05:50:09.145Z,29.63
2023-03-10T05:52:38.550Z,30.93
2023-03-10T05:55:07.594Z,23.67
2023-03-10T05:57:37.185Z,23.87
2023-03-10T06:00:05.916Z,26.67
2023-03-10T06:02:34.077Z,27.03
2023-03-10T06:05:02.344Z,26.90
2023-03-10T06:07:30.530Z,23.87
2023-03-10T06:09:58.858Z,23.77
2023-03-10T06:12:27.057Z,21.53
2023-03-10T06:14:56.577Z,21.53
2023-03-10T06:17:24.782Z,23.47
2023-03-10T06:19:52.941Z,25.60
2023-03-10T06:22:21.127Z,21.30
2023-03-10T06:24:49.281Z,22.37
2023-03-10T06:27:17.438Z,26.20
2023-03-10T06:29:46.903Z,26.43
2023-03-10T06:32:16.491Z,29.40
2023-03-10T06:34:44.649Z,28.63
2023-03-10T06:37:12.786Z,25.83
2023-03-10T06:39:41.140Z,29.23
2023-03-10T06:42:09.685Z,26.10
2023-03-10T06:44:37.887Z,33.20
2023-03-10T06:47:06.154Z,33.40
2023-03-10T06:49:35.799Z,29.27
2023-03-10T06:52:03.969Z,32.93
2023-03-10T06:54:32.089Z,33.63
2023-03-10T06:57:00.272Z,28.97
2023-03-10T06:59:28.601Z,26.80
2023-03-10T07:01:56.740Z,24.90
2023-03-10T07:04:24.928Z,19.20
2023-03-10T07:06:54.544Z,24.27
2023-03-10T07:09:22.681Z,38.13
2023-03-10T07:11:50.817Z,43.53
2023-03-10T07:14:18.990Z,31.57
2023-03-10T07:16:47.242Z,23.63
2023-03-10T07:19:15.810Z,25.97
2023-03-10T07:21:44.044Z,26.87
2023-03-10T07:24:13.582Z,27.70
2023-03-10T07:26:42.078Z,25.83
2023-03-10T07:29:10.322Z,27.40
2023-03-10T07:31:38.640Z,26.27
2023-03-10T07:34:06.819Z,25.23
2023-03-10T07:36:35.052Z,25.40
2023-03-10T07:39:03.237Z,22.20
2023-03-10T07:41:32.829Z,26.17
2023-03-10T07:44:00.976Z,58.70
2023-03-10T07:46:29.667Z,48.67
2023-03-10T07:49:00.015Z,36.80
2023-03-10T07:51:28.285Z,37.30
2023-03-10T07:53:56.502Z,41.77
2023-03-10T07:56:24.722Z,36.80
2023-03-10T07:58:54.276Z,35.93
2023-03-10T08:01:22.999Z,33.00
2023-03-10T08:03:51.287Z,32.20
2023-03-10T08:06:20.960Z,36.37
2023-03-10T08:08:49.349Z,35.67
2023-03-10T08:11:17.677Z,43.60
2023-03-10T08:13:47.547Z,46.40
2023-03-10T08:16:17.851Z,36.70
2023-03-10T08:18:46.121Z,35.43
2023-03-10T08:21:14.329Z,41.60
2023-03-10T08:23:42.563Z,44.80
2023-03-10T08:26:12.703Z,31.70
2023-03-10T08:28:41.060Z,48.40
2023-03-10T08:31:10.354Z,43.37
2023-03-10T08:33:40.164Z,34.93
2023-03-10T08:36:09.573Z,34.80
2023-03-10T08:38:38.469Z,34.83
2023-03-10T08:41:10.983Z,25.33
2023-03-10T08:43:39.385Z,33.90
2023-03-10T08:46:08.797Z,34.73
2023-03-10T08:48:37.302Z,43.27
2023-03-10T08:51:07.341Z,38.17
2023-03-10T08:53:36.412Z,45.97
2023-03-10T08:56:05.195Z,45.40
2023-03-10T08:58:33.603Z,49.07
2023-03-10T09:01:01.785Z,40.73
2023-03-10T09:03:31.782Z,38.37
2023-03-10T09:06:00.318Z,33.80
2023-03-10T09:08:29.896Z,37.87
2023-03-10T09:10:58.097Z,32.20
2023-03-10T09:13:26.350Z,30.33
2023-03-10T09:15:54.673Z,35.80
2023-03-10T09:18:22.880Z,39.23
2023-03-10T09:20:51.362Z,43.53
2023-03-10T09:23:19.788Z,46.20
2023-03-10T09:25:49.369Z,53.03
2023-03-10T09:28:18.808Z,51.60
2023-03-10T09:30:48.174Z,47.47
2023-03-10T09:33:17.118Z,39.90
2023-03-10T09:35:52.952Z,41.10
2023-03-10T09:38:31.101Z,39.33
2023-03-10T09:41:08.418Z,34.73
2023-03-10T09:43:39.065Z,36.90
2023-03-10T09:46:10.317Z,42.67
2023-03-10T09:48:42.432Z,35.33
2023-03-10T09:51:15.966Z,45.23
2023-03-10T09:53:59.061Z,59.40
2023-03-10T09:56:31.553Z,55.57
2023-03-10T09:59:01.577Z,52.50
2023-03-10T10:01:31.346Z,49.10
2023-03-10T10:04:01.680Z,48.30
2023-03-10T10:06:32.221Z,40.67
2023-03-10T10:09:05.006Z,34.97
2023-03-10T10:11:36.484Z,29.83
2023-03-10T10:14:22.400Z,45.47
2023-03-10T10:17:00.556Z,42.90
2023-03-10T10:19:29.817Z,29.20
2023-03-10T10:22:00.446Z,39.60
2023-03-10T10:24:28.852Z,39.50
2023-03-10T10:26:58.383Z,47.37
2023-03-10T10:29:27.517Z,62.13
2023-03-10T10:32:09.292Z,49.13
2023-03-10T10:34:38.382Z,40.50
2023-03-10T10:37:21.980Z,29.03
2023-03-10T10:39:51.453Z,17.97
2023-03-10T10:42:24.177Z,19.43
2023-03-10T10:44:54.251Z,24.23
2023-03-10T10:47:27.294Z,31.73
2023-03-10T10:49:56.591Z,28.33
2023-03-10T10:52:25.699Z,33.70
2023-03-10T10:54:56.912Z,31.10
2023-03-10T10:57:28.980Z,37.30
2023-03-10T10:59:57.153Z,35.17
2023-03-10T11:02:31.709Z,33.63
2023-03-10T11:05:08.802Z,38.13
2023-03-10T11:07:37.019Z,34.23
2023-03-10T11:10:08.078Z,48.33
2023-03-10T11:12:40.410Z,45.30
2023-03-10T11:15:14.404Z,34.50
2023-03-10T11:17:45.560Z,40.27
2023-03-10T11:20:24.235Z,53.13
2023-03-10T11:22:54.956Z,44.43
2023-03-10T11:25:26.383Z,54.20
2023-03-10T11:28:01.262Z,105.10
2023-03-10T11:30:32.736Z,81.73
2023-03-10T11:33:06.700Z,46.97
2023-03-10T11:35:43.689Z,47.80
2023-03-10T11:38:29.888Z,46.47
2023-03-10T11:40:59.497Z,47.60
2023-03-10T11:43:33.627Z,48.27
2023-03-10T11:46:05.526Z,42.23
2023-03-10T11:48:38.322Z,29.83
2023-03-10T11:51:07.223Z,32.40
2023-03-10T11:53:37.351Z,26.17
2023-03-10T11:56:06.202Z,21.00
2023-03-10T11:58:41.279Z,18.60
2023-03-10T12:01:10.866Z,16.40
2023-03-10T12:03:42.708Z,19.33
2023-03-10T12:06:13.705Z,17.63
2023-03-10T12:08:42.315Z,27.07
2023-03-10T12:11:15.281Z,30.77
2023-03-10T12:13:46.550Z,31.20
2023-03-10T12:16:17.775Z,21.57
2023-03-10T12:18:46.070Z,17.67
2023-03-10T12:21:16.400Z,16.50
2023-03-10T12:23:45.501Z,12.07
2023-03-10T12:26:13.725Z,15.33
2023-03-10T12:28:42.038Z,13.70
2023-03-10T12:31:12.479Z,17.87
2023-03-10T12:33:52.378Z,13.33
2023-03-10T12:36:27.399Z,14.37
2023-03-10T12:38:57.477Z,14.87
2023-03-10T12:41:40.570Z,12.60
2023-03-10T12:44:27.450Z,16.53
2023-03-10T12:47:00.793Z,16.57
2023-03-10T12:49:32.567Z,17.93
2023-03-10T12:52:08.524Z,13.73
2023-03-10T12:55:03.984Z,16.50
2023-03-10T12:57:34.502Z,16.20
2023-03-10T13:00:06.169Z,17.43
2023-03-10T13:02:39.155Z,15.97
2023-03-10T13:05:09.077Z,12.43
2023-03-10T13:07:37.667Z,14.27
2023-03-10T13:10:06.280Z,14.03
2023-03-10T13:12:38.393Z,11.60
2023-03-10T13:15:08.822Z,13.80
2023-03-10T13:17:38.411Z,16.03
2023-03-10T13:20:08.490Z,27.33
2023-03-10T13:22:37.013Z,31.23
2023-03-10T13:25:07.722Z,45.87
2023-03-10T13:27:36.341Z,49.43
2023-03-10T13:30:06.509Z,65.73
2023-03-10T13:32:35.051Z,67.77
2023-03-10T13:35:16.568Z,68.87
2023-03-10T13:37:45.148Z,95.27
2023-03-10T13:40:18.109Z,130.77
2023-03-10T13:42:49.085Z,130.17
2023-03-10T13:45:24.291Z,123.03
2023-03-10T13:47:52.931Z,135.47
2023-03-10T13:50:22.774Z,141.93
2023-03-10T13:52:54.479Z,147.37
2023-03-10T13:55:22.770Z,135.10
2023-03-10T13:57:51.702Z,124.90
2023-03-10T14:00:21.468Z,134.47
2023-03-10T14:02:50.797Z,104.10
2023-03-10T14:05:37.660Z,89.63
2023-03-10T14:08:07.609Z,93.67
2023-03-10T14:10:35.843Z,97.67
2023-03-10T14:13:04.029Z,127.87
2023-03-10T14:15:38.516Z,102.70
2023-03-10T14:18:19.449Z,101.07
2023-03-10T14:20:48.370Z,119.37
2023-03-10T14:23:28.338Z,98.23
2023-03-10T14:25:57.241Z,99.20
2023-03-10T14:28:26.876Z,99.37
2023-03-10T14:30:55.614Z,106.87
2023-03-10T14:33:24.030Z,125.73
2023-03-10T14:35:52.568Z,125.13
2023-03-10T14:38:20.928Z,136.10
2023-03-10T14:40:51.294Z,121.40
2023-03-10T14:43:20.937Z,120.03
2023-03-10T14:45:50.142Z,112.63
2023-03-10T14:48:19.157Z,100.57
2023-03-10T14:50:48.020Z,87.97
2023-03-10T14:53:16.847Z,82.77
2023-03-10T14:55:47.633Z,101.57
2023-03-10T14:58:18.455Z,83.53
2023-03-10T15:00:46.686Z,94.60
2023-03-10T15:03:15.227Z,74.90
2023-03-10T15:05:48.735Z,94.97
2023-03-10T15:08:17.478Z,120.93
2023-03-10T15:10:48.210Z,162.63
2023-03-10T15:13:18.530Z,225.07
2023-03-10T15:15:47.719Z,268.27
2023-03-10T15:18:16.649Z,329.77
2023-03-10T15:20:45.346Z,378.37
2023-03-10T15:23:17.087Z,365.63
2023-03-10T15:25:46.498Z,434.60
2023-03-10T15:28:15.115Z,432.30
2023-03-10T15:30:44.696Z,473.37
2023-03-10T15:33:12.965Z,493.53
2023-03-10T15:35:41.494Z,543.33
2023-03-10T15:38:09.961Z,522.33
2023-03-10T15:40:38.992Z,543.90
2023-03-10T15:43:07.367Z,572.73
2023-03-10T15:45:36.662Z,589.17
2023-03-10T15:48:06.430Z,602.20
2023-03-10T15:50:34.586Z,592.10
2023-03-10T15:53:02.934Z,637.43
2023-03-10T15:55:31.254Z,682.80
2023-03-10T15:57:59.460Z,705.73
2023-03-10T16:00:28.450Z,748.97
2023-03-10T16:02:56.704Z,759.23
2023-03-10T16:05:26.345Z,719.37
2023-03-10T16:07:54.617Z,715.30
2023-03-10T16:10:22.961Z,576.27
2023-03-10T16:12:51.518Z,509.13
2023-03-10T16:15:19.807Z,382.90
2023-03-10T16:17:48.110Z,379.07
2023-03-10T16:20:19.068Z,339.97
2023-03-10T16:22:48.759Z,282.57
2023-03-10T16:25:17.874Z,263.03
2023-03-10T16:27:46.794Z,247.83
2023-03-10T16:30:15.699Z,121.43
2023-03-10T16:32:46.060Z,103.87
2023-03-10T16:35:14.449Z,52.37
2023-03-10T16:37:42.849Z,49.70
2023-03-10T16:40:13.471Z,45.57
2023-03-10T16:42:45.467Z,46.53
2023-03-10T16:45:14.127Z,63.70
2023-03-10T16:47:44.120Z,64.20
2023-03-10T16:50:14.291Z,86.90
2023-03-10T16:52:43.268Z,82.73
2023-03-10T16:55:17.369Z,77.53
2023-03-10T16:57:46.216Z,111.30
2023-03-10T17:00:15.184Z,80.10
2023-03-10T17:02:43.333Z,48.70
2023-03-10T17:05:13.195Z,25.50
2023-03-10T17:07:54.699Z,8.70
2023-03-10T17:10:26.772Z,3.97
2023-03-10T17:12:54.997Z,2.10
2023-03-10T17:15:23.212Z,1.90
2023-03-10T17:17:51.938Z,1.80
2023-03-10T17:20:20.269Z,2.50
2023-03-10T17:22:48.517Z,2.40
2023-03-10T17:25:16.787Z,2.30
2023-03-10T17:27:46.419Z,1.77
2023-03-10T17:30:15.444Z,1.43
2023-03-10T17:32:45.185Z,1.60
2023-03-10T17:35:13.447Z,1.13
2023-03-10T17:37:41.743Z,1.47
2023-03-10T17:40:10.792Z,0.93
2023-03-10T17:42:39.120Z,1.30
2023-03-10T17:45:09.625Z,1.60
2023-03-10T17:47:38.038Z,1.37
2023-03-10T17:50:06.568Z,1.20
2023-03-10T17:52:34.787Z,1.70
2023-03-10T17:55:03.175Z,1.63
2023-03-10T17:57:31.314Z,1.70
2023-03-10T17:59:59.569Z,1.10
2023-03-10T18:02:29.183Z,0.93
2023-03-10T18:04:57.513Z,0.90
2023-03-10T18:07:25.894Z,1.07
2023-03-10T18:09:54.106Z,1.40
2023-03-10T18:12:22.299Z,1.60
2023-03-10T18:14:50.518Z,1.57
2023-03-10T18:17:18.727Z,1.00
2023-03-10T18:19:48.226Z,1.17
2023-03-10T18:22:16.413Z,1.20
2023-03-10T18:24:44.622Z,1.20
2023-03-10T18:27:12.880Z,0.90
2023-03-10T18:29:41.483Z,1.30
2023-03-10T18:32:09.953Z,1.53
2023-03-10T18:34:38.206Z,2.10
2023-03-10T18:37:07.906Z,2.80
2023-03-10T18:39:36.087Z,1.60
2023-03-10T18:42:04.291Z,1.40
2023-03-10T18:44:32.441Z,2.80
2023-03-10T18:47:00.600Z,1.33
2023-03-10T18:49:29.087Z,2.47
2023-03-10T18:51:57.289Z,1.53
2023-03-10T18:54:26.933Z,1.80
2023-03-10T18:56:55.091Z,1.90
2023-03-10T18:59:23.254Z,1.40
2023-03-10T19:01:51.474Z,2.57
2023-03-10T19:04:19.669Z,1.63
2023-03-10T19:06:47.907Z,1.10
2023-03-10T19:09:19.043Z,1.57
2023-03-10T19:11:50.346Z,1.87
2023-03-10T19:14:18.905Z,1.80
2023-03-10T19:16:49.902Z,1.87
2023-03-10T19:19:18.098Z,3.03
2023-03-10T19:21:46.416Z,1.10
2023-03-10T19:24:14.600Z,1.30
2023-03-10T19:26:43.385Z,4.50
2023-03-10T19:29:12.935Z,1.80
2023-03-10T19:31:41.364Z,1.23
2023-03-10T19:34:09.534Z,4.80
2023-03-10T19:36:37.778Z,1.50
2023-03-10T19:39:06.256Z,1.73
2023-03-10T19:41:34.554Z,2.03
2023-03-10T19:44:02.715Z,1.40
2023-03-10T19:46:32.281Z,0.83
2023-03-10T19:49:00.485Z,3.10
2023-03-10T19:51:29.637Z,0.73
2023-03-10T19:53:58.585Z,2.30
2023-03-10T19:56:27.101Z,1.97
2023-03-10T19:58:55.284Z,2.53
2023-03-10T20:01:25.385Z,1.97
2023-03-10T20:03:55.748Z,3.37
2023-03-10T20:06:24.529Z,2.30
2023-03-10T20:08:53.634Z,3.00
2023-03-10T20:11:22.272Z,1.40
2023-03-10T20:13:53.231Z,3.30
2023-03-10T20:16:24.000Z,1.80
2023-03-10T20:18:52.403Z,1.00
2023-03-10T20:21:21.934Z,1.30
2023-03-10T20:23:50.087Z,7.53
2023-03-10T20:26:19.263Z,2.93
2023-03-10T20:28:47.458Z,1.33
2023-03-10T20:31:18.896Z,3.10
2023-03-10T20:33:47.142Z,1.40
2023-03-10T20:36:15.896Z,2.17
2023-03-10T20:38:46.126Z,1.33
2023-03-10T20:41:15.217Z,6.40
2023-03-10T20:43:43.835Z,5.13
2023-03-10T20:46:12.089Z,5.93
2023-03-10T20:48:40.588Z,6.73
2023-03-10T20:51:08.796Z,2.37
2023-03-10T20:53:37.271Z,6.67
2023-03-10T20:56:08.980Z,3.53
2023-03-10T20:58:37.320Z,3.70
2023-03-10T21:01:05.838Z,3.40
2023-03-10T21:03:34.151Z,4.70
2023-03-10T21:06:02.296Z,3.63
2023-03-10T21:08:30.486Z,1.77
2023-03-10T21:10:58.675Z,3.00
2023-03-10T21:13:28.257Z,2.20
2023-03-10T21:15:56.442Z,1.23
2023-03-10T21:18:24.652Z,1.43
2023-03-10T21:20:52.860Z,1.30
2023-03-10T21:23:21.109Z,1.20
2023-03-10T21:25:49.294Z,1.47
2023-03-10T21:28:17.498Z,1.30
2023-03-10T21:30:47.024Z,1.00
2023-03-10T21:33:15.243Z,1.17
2023-03-10T21:35:43.466Z,1.10
2023-03-10T21:38:12.006Z,0.83
2023-03-10T21:40:40.212Z,1.00
2023-03-10T21:43:08.490Z,0.97
2023-03-10T21:45:37.445Z,2.17
2023-03-10T21:48:07.274Z,1.30
2023-03-10T21:50:35.495Z,1.30
2023-03-10T21:53:04.862Z,1.00
2023-03-10T21:55:34.359Z,2.10
2023-03-10T21:58:03.016Z,1.00
2023-03-10T22:00:31.283Z,1.37
2023-03-10T22:02:59.502Z,0.90
2023-03-10T22:05:29.262Z,1.60
2023-03-10T22:07:58.452Z,1.00
2023-03-10T22:10:26.860Z,1.07
2023-03-10T22:12:55.040Z,1.03
2023-03-10T22:15:24.276Z,1.00
2023-03-10T22:17:52.504Z,1.00
2023-03-10T22:20:22.034Z,0.80
2023-03-10T22:22:51.551Z,1.40
2023-03-10T22:25:20.173Z,1.03
2023-03-10T22:27:50.491Z,0.70
2023-03-10T22:30:18.957Z,1.10
2023-03-10T22:32:47.239Z,1.17
2023-03-10T22:35:15.523Z,1.13
2023-03-10T22:37:44.218Z,0.70
2023-03-10T22:40:16.285Z,1.10
2023-03-10T22:42:45.370Z,0.80
2023-03-10T22:45:17.281Z,0.90
2023-03-10T22:47:45.850Z,1.17
2023-03-10T22:50:15.162Z,0.60
2023-03-10T22:52:44.576Z,0.90
2023-03-10T22:55:15.709Z,0.83
2023-03-10T22:57:43.886Z,1.03
2023-03-10T23:00:14.173Z,0.73
2023-03-10T23:02:42.508Z,1.00
2023-03-10T23:05:10.813Z,0.90
2023-03-10T23:07:39.004Z,0.83
2023-03-10T23:10:07.539Z,1.10
2023-03-10T23:12:39.251Z,0.80
2023-03-10T23:15:15.389Z,0.80
2023-03-10T23:17:50.896Z,1.00
2023-03-10T23:20:19.270Z,0.60
2023-03-10T23:22:48.206Z,0.80
2023-03-10T23:25:18.733Z,0.97
2023-03-10T23:27:48.258Z,0.80
2023-03-10T23:30:16.678Z,1.20
2023-03-10T23:32:45.407Z,0.87
2023-03-10T23:35:13.978Z,0.87
2023-03-10T23:37:42.265Z,0.70
2023-03-10T23:40:11.974Z,0.93
2023-03-10T23:42:40.384Z,0.80
2023-03-10T23:45:12.026Z,0.80
2023-03-10T23:47:40.616Z,0.87
2023-03-10T23:50:09.953Z,0.87
2023-03-10T23:52:38.165Z,1.10
2023-03-10T23:55:06.794Z,0.83
2023-03-10T23:57:35.026Z,0.70
